createdAt,value
2022-09-18T00:31:09.310Z,79.36
2022-09-18T00:32:07.817Z,79.36
2022-09-18T00:33:07.798Z,79.36
2022-09-18T00:34:07.859Z,79.36
2022-09-18T00:35:07.778Z,79.25
2022-09-18T00:36:07.732Z,79.36
2022-09-18T00:37:07.712Z,79.25
2022-09-18T00:38:07.704Z,79.25
2022-09-18T00:39:07.693Z,79.36
2022-09-18T00:40:07.772Z,79.25
2022-09-18T00:41:07.663Z,79.36
2022-09-18T00:42:07.653Z,79.25
2022-09-18T00:43:07.633Z,79.25
2022-09-18T00:44:07.639Z,79.36
2022-09-18T00:45:07.624Z,79.36
2022-09-18T00:46:07.658Z,79.36
2022-09-18T00:47:07.594Z,79.36
2022-09-18T00:48:07.569Z,79.36
2022-09-18T00:49:07.555Z,79.36
2022-09-18T00:50:10.585Z,79.39
2022-09-18T00:51:10.579Z,79.39
2022-09-18T00:52:07.505Z,79.39
2022-09-18T00:53:07.496Z,79.39
2022-09-18T00:54:07.476Z,79.39
2022-09-18T00:55:07.596Z,79.39
2022-09-18T00:56:07.567Z,79.39
2022-09-18T00:57:07.588Z,79.49
2022-09-18T00:58:07.486Z,79.39
2022-09-18T00:59:07.478Z,79.39
2022-09-18T01:00:07.555Z,79.39
2022-09-18T01:01:07.646Z,79.39
2022-09-18T01:02:07.486Z,79.49
2022-09-18T01:03:07.420Z,79.49
2022-09-18T01:04:07.489Z,79.43
2022-09-18T01:05:07.360Z,79.53
2022-09-18T01:06:07.415Z,79.43
2022-09-18T01:07:07.383Z,79.43
2022-09-18T01:08:07.361Z,79.53
2022-09-18T01:09:07.362Z,79.43
2022-09-18T01:10:10.420Z,79.43
2022-09-18T01:11:10.522Z,79.63
2022-09-18T01:12:07.349Z,79.53
2022-09-18T01:13:07.292Z,79.53
2022-09-18T01:14:07.363Z,79.53
2022-09-18T01:15:07.293Z,79.53
2022-09-18T01:16:07.347Z,79.53
2022-09-18T01:17:07.253Z,79.53
2022-09-18T01:18:07.441Z,79.53
2022-09-18T01:19:07.205Z,79.53
2022-09-18T01:20:07.170Z,79.53
2022-09-18T01:21:07.221Z,79.53
2022-09-18T01:22:07.167Z,79.53
2022-09-18T01:23:07.154Z,79.53
2022-09-18T01:24:07.163Z,79.43
2022-09-18T01:25:07.145Z,79.53
2022-09-18T01:26:07.106Z,79.63
2022-09-18T01:27:07.120Z,79.53
2022-09-18T01:28:07.125Z,79.57
2022-09-18T01:29:07.045Z,79.57
2022-09-18T01:30:10.086Z,79.57
2022-09-18T01:31:26.288Z,79.57
2022-09-18T01:32:14.806Z,79.67
2022-09-18T01:33:08.002Z,79.57
2022-09-18T01:34:07.058Z,79.57
2022-09-18T01:35:14.237Z,79.57
2022-09-18T01:36:07.980Z,79.57
2022-09-18T01:37:07.011Z,79.57
2022-09-18T01:38:06.895Z,79.57
2022-09-18T01:39:07.000Z,79.57
2022-09-18T01:40:06.967Z,79.57
2022-09-18T01:41:06.899Z,79.57
2022-09-18T01:42:06.953Z,79.53
2022-09-18T01:43:06.978Z,79.53
2022-09-18T01:44:06.942Z,79.53
2022-09-18T01:45:06.892Z,79.67
2022-09-18T01:46:06.917Z,79.53
2022-09-18T01:47:06.818Z,79.57
2022-09-18T01:48:06.785Z,79.57
2022-09-18T01:49:06.932Z,79.57
2022-09-18T01:50:09.823Z,79.57
2022-09-18T01:51:09.787Z,79.57
2022-09-18T01:52:06.810Z,79.67
2022-09-18T01:53:06.731Z,79.57
2022-09-18T01:54:07.777Z,79.67
2022-09-18T01:55:06.765Z,79.77
2022-09-18T01:56:06.691Z,79.57
2022-09-18T01:57:06.775Z,79.57
2022-09-18T01:58:06.723Z,79.57
2022-09-18T01:59:06.655Z,79.71
2022-09-18T02:00:06.743Z,79.71
2022-09-18T02:01:06.662Z,79.61
2022-09-18T02:02:06.881Z,79.61
2022-09-18T02:03:06.647Z,79.61
2022-09-18T02:04:06.626Z,79.61
2022-09-18T02:05:06.597Z,79.71
2022-09-18T02:06:06.584Z,79.50
2022-09-18T02:07:06.490Z,79.61
2022-09-18T02:08:06.558Z,79.61
2022-09-18T02:09:06.513Z,79.57
2022-09-18T02:10:09.499Z,79.47
2022-09-18T02:11:09.509Z,79.57
2022-09-18T02:12:06.527Z,79.57
2022-09-18T02:13:06.479Z,79.57
2022-09-18T02:14:06.459Z,79.57
2022-09-18T02:15:06.429Z,79.47
2022-09-18T02:16:06.716Z,79.57
2022-09-18T02:17:06.424Z,79.47
2022-09-18T02:18:06.399Z,79.47
2022-09-18T02:19:06.413Z,79.57
2022-09-18T02:20:06.381Z,79.57
2022-09-18T02:21:06.361Z,79.47
2022-09-18T02:22:06.391Z,79.57
2022-09-18T02:23:06.308Z,79.47
2022-09-18T02:24:06.283Z,79.47
2022-09-18T02:25:06.274Z,79.57
2022-09-18T02:26:06.262Z,79.47
2022-09-18T02:27:06.311Z,79.47
2022-09-18T02:28:06.325Z,79.57
2022-09-18T02:29:06.292Z,79.57
2022-09-18T02:30:09.192Z,79.57
2022-09-18T02:31:09.271Z,79.77
2022-09-18T02:32:06.211Z,79.67
2022-09-18T02:33:06.232Z,79.67
2022-09-18T02:34:06.243Z,79.71
2022-09-18T02:35:06.140Z,79.71
2022-09-18T02:36:06.175Z,79.71
2022-09-18T02:37:06.146Z,79.71
2022-09-18T02:38:06.096Z,79.71
2022-09-18T02:39:06.093Z,79.71
2022-09-18T02:40:06.182Z,79.71
2022-09-18T02:41:06.065Z,79.71
2022-09-18T02:42:06.104Z,79.85
2022-09-18T02:43:06.077Z,79.75
2022-09-18T02:44:06.046Z,79.85
2022-09-18T02:45:06.079Z,79.75
2022-09-18T02:46:06.109Z,79.85
2022-09-18T02:47:06.069Z,79.85
2022-09-18T02:48:06.016Z,79.75
2022-09-18T02:49:06.008Z,79.85
2022-09-18T02:50:08.974Z,79.85
2022-09-18T02:51:08.931Z,79.75
2022-09-18T02:52:05.918Z,79.85
2022-09-18T02:53:05.911Z,79.85
2022-09-18T02:54:05.909Z,79.85
2022-09-18T02:55:05.900Z,79.75
2022-09-18T02:56:05.850Z,79.81
2022-09-18T02:57:06.979Z,79.71
2022-09-18T02:58:05.860Z,79.71
2022-09-18T02:59:05.848Z,79.81
2022-09-18T03:00:05.832Z,79.81
2022-09-18T03:01:05.870Z,79.81
2022-09-18T03:02:05.932Z,79.91
2022-09-18T03:03:05.828Z,79.81
2022-09-18T03:04:05.741Z,79.85
2022-09-18T03:05:05.789Z,79.85
2022-09-18T03:06:05.742Z,79.95
2022-09-18T03:07:05.735Z,79.95
2022-09-18T03:08:05.694Z,79.85
2022-09-18T03:09:05.659Z,79.95
2022-09-18T03:10:08.772Z,79.95
2022-09-18T03:11:08.743Z,79.95
2022-09-18T03:12:05.694Z,79.95
2022-09-18T03:13:05.695Z,79.95
2022-09-18T03:14:05.614Z,79.99
2022-09-18T03:15:05.673Z,79.99
2022-09-18T03:16:05.719Z,79.99
2022-09-18T03:17:05.604Z,79.99
2022-09-18T03:18:05.816Z,80.09
2022-09-18T03:19:05.675Z,80.09
2022-09-18T03:20:05.555Z,79.99
2022-09-18T03:21:05.576Z,79.99
2022-09-18T03:22:05.590Z,80.09
2022-09-18T03:23:05.514Z,80.09
2022-09-18T03:24:05.640Z,80.09
2022-09-18T03:25:05.479Z,80.09
2022-09-18T03:26:05.497Z,79.99
2022-09-18T03:27:05.407Z,80.09
2022-09-18T03:28:05.387Z,79.95
2022-09-18T03:29:05.396Z,79.95
2022-09-18T03:30:08.408Z,79.95
2022-09-18T03:31:08.497Z,79.95
2022-09-18T03:32:05.359Z,79.95
2022-09-18T03:33:05.498Z,79.95
2022-09-18T03:34:05.597Z,79.95
2022-09-18T03:35:05.467Z,79.91
2022-09-18T03:36:05.405Z,79.91
2022-09-18T03:37:05.489Z,79.91
2022-09-18T03:38:05.341Z,80.02
2022-09-18T03:39:05.353Z,80.02
2022-09-18T03:40:05.393Z,79.91
2022-09-18T03:41:05.268Z,80.02
2022-09-18T03:42:05.278Z,80.02
2022-09-18T03:43:05.234Z,80.05
2022-09-18T03:44:05.280Z,80.05
2022-09-18T03:45:05.183Z,80.16
2022-09-18T03:46:05.259Z,80.05
2022-09-18T03:47:05.181Z,80.05
2022-09-18T03:48:05.165Z,80.16
2022-09-18T03:49:05.194Z,80.16
2022-09-18T03:50:08.124Z,80.19
2022-09-18T03:51:08.254Z,80.19
2022-09-18T03:52:05.093Z,80.19
2022-09-18T03:53:05.194Z,80.30
2022-09-18T03:54:05.075Z,80.30
2022-09-18T03:55:05.133Z,80.30
2022-09-18T03:56:05.067Z,80.19
2022-09-18T03:57:05.299Z,80.30
2022-09-18T03:58:05.057Z,80.33
2022-09-18T03:59:05.057Z,80.33
2022-09-18T04:00:05.084Z,80.33
2022-09-18T04:01:05.093Z,80.33
2022-09-18T04:02:05.179Z,80.33
2022-09-18T04:03:05.130Z,80.44
2022-09-18T04:04:05.051Z,80.44
2022-09-18T04:05:05.007Z,80.33
2022-09-18T04:06:04.981Z,80.44
2022-09-18T04:07:04.928Z,80.44
2022-09-18T04:08:04.942Z,80.44
2022-09-18T04:09:05.017Z,80.44
2022-09-18T04:10:07.898Z,80.44
2022-09-18T04:11:07.872Z,80.44
2022-09-18T04:12:04.942Z,80.44
2022-09-18T04:13:04.871Z,80.44
2022-09-18T04:14:04.841Z,80.44
2022-09-18T04:15:04.907Z,80.44
2022-09-18T04:16:04.887Z,80.44
2022-09-18T04:17:04.814Z,80.44
2022-09-18T04:18:04.853Z,80.44
2022-09-18T04:19:04.724Z,80.44
2022-09-18T04:20:04.684Z,80.44
2022-09-18T04:21:04.671Z,80.44
2022-09-18T04:22:04.657Z,80.44
2022-09-18T04:23:04.632Z,80.44
2022-09-18T04:24:04.644Z,80.44
2022-09-18T04:25:04.611Z,80.40
2022-09-18T04:26:04.597Z,80.40
2022-09-18T04:27:04.573Z,80.40
2022-09-18T04:28:04.554Z,80.30
2022-09-18T04:29:04.653Z,80.26
2022-09-18T04:30:07.535Z,80.26
2022-09-18T04:31:07.578Z,80.26
2022-09-18T04:32:04.493Z,80.26
2022-09-18T04:33:04.484Z,80.26
2022-09-18T04:34:04.465Z,80.26
2022-09-18T04:35:04.525Z,80.26
2022-09-18T04:36:04.476Z,80.26
2022-09-18T04:37:08.171Z,80.26
2022-09-18T04:38:05.445Z,80.26
2022-09-18T04:39:04.411Z,80.26
2022-09-18T04:40:04.426Z,80.26
2022-09-18T04:41:04.406Z,80.26
2022-09-18T04:42:04.357Z,80.16
2022-09-18T04:43:04.407Z,80.26
2022-09-18T04:44:04.345Z,80.16
2022-09-18T04:45:04.318Z,80.26
2022-09-18T04:46:04.308Z,80.16
2022-09-18T04:47:04.398Z,80.16
2022-09-18T04:48:04.308Z,80.16
2022-09-18T04:49:04.269Z,80.16
2022-09-18T04:50:07.271Z,80.16
2022-09-18T04:51:07.268Z,80.16
2022-09-18T04:52:04.219Z,80.16
2022-09-18T04:53:04.257Z,80.12
2022-09-18T04:54:04.253Z,80.12
2022-09-18T04:55:04.198Z,80.12
2022-09-18T04:56:04.181Z,80.02
2022-09-18T04:57:04.151Z,80.02
2022-09-18T04:58:04.162Z,80.02
2022-09-18T04:59:04.172Z,80.12
2022-09-18T05:00:04.142Z,80.02
2022-09-18T05:01:04.172Z,80.02
2022-09-18T05:02:04.154Z,80.02
2022-09-18T05:03:04.086Z,80.02
2022-09-18T05:04:04.113Z,80.02
2022-09-18T05:05:04.052Z,80.02
2022-09-18T05:06:04.058Z,80.02
2022-09-18T05:07:04.054Z,79.91
2022-09-18T05:08:04.014Z,79.91
2022-09-18T05:09:36.501Z,79.91
2022-09-18T05:10:07.250Z,79.91
2022-09-18T05:11:07.075Z,79.91
2022-09-18T05:12:04.060Z,79.81
2022-09-18T05:13:04.087Z,79.91
2022-09-18T05:14:04.052Z,79.81
2022-09-18T05:15:04.082Z,79.81
2022-09-18T05:16:04.211Z,79.81
2022-09-18T05:17:04.128Z,79.81
2022-09-18T05:18:07.758Z,79.81
2022-09-18T05:20:13.721Z,79.81
2022-09-18T05:21:13.684Z,79.81
2022-09-18T05:22:13.667Z,79.81
2022-09-18T05:23:13.645Z,79.81
2022-09-18T05:24:13.634Z,79.91
2022-09-18T05:25:13.648Z,79.77
2022-09-18T05:26:13.663Z,79.77
2022-09-18T05:27:13.595Z,79.77
2022-09-18T05:28:13.594Z,79.67
2022-09-18T05:29:13.566Z,79.67
2022-09-18T05:30:13.557Z,79.57
2022-09-18T05:31:13.586Z,79.57
2022-09-18T05:32:13.556Z,79.57
2022-09-18T05:33:13.519Z,79.57
2022-09-18T05:34:13.506Z,79.57
2022-09-18T05:35:13.509Z,79.57
2022-09-18T05:36:13.477Z,79.57
2022-09-18T05:37:13.462Z,79.67
2022-09-18T05:38:13.458Z,79.57
2022-09-18T05:39:17.704Z,79.61
2022-09-18T05:40:16.539Z,79.61
2022-09-18T05:41:13.408Z,79.61
2022-09-18T05:42:13.400Z,79.61
2022-09-18T05:43:13.401Z,79.50
2022-09-18T05:44:13.370Z,79.61
2022-09-18T05:45:13.350Z,79.61
2022-09-18T05:46:13.372Z,79.57
2022-09-18T05:47:13.321Z,79.47
2022-09-18T05:48:13.361Z,79.36
2022-09-18T05:49:13.303Z,79.47
2022-09-18T05:50:13.292Z,79.47
2022-09-18T05:51:13.274Z,79.47
2022-09-18T05:52:13.262Z,79.36
2022-09-18T05:53:13.252Z,79.33
2022-09-18T05:54:13.301Z,79.22
2022-09-18T05:55:13.225Z,79.33
2022-09-18T05:56:13.211Z,79.22
2022-09-18T05:57:13.193Z,79.22
2022-09-18T05:58:13.213Z,79.33
2022-09-18T05:59:16.222Z,79.36
2022-09-18T06:00:16.202Z,79.36
2022-09-18T06:01:13.134Z,79.26
2022-09-18T06:02:13.167Z,79.26
2022-09-18T06:03:13.269Z,79.26
2022-09-18T06:04:13.095Z,79.26
2022-09-18T06:05:13.143Z,79.26
2022-09-18T06:06:13.075Z,79.26
2022-09-18T06:07:13.068Z,79.12
2022-09-18T06:08:13.054Z,79.12
2022-09-18T06:09:13.026Z,79.02
2022-09-18T06:10:13.016Z,79.08
2022-09-18T06:11:13.081Z,78.98
2022-09-18T06:12:12.987Z,78.98
2022-09-18T06:13:12.982Z,79.19
2022-09-18T06:14:12.967Z,78.98
2022-09-18T06:15:12.992Z,78.94
2022-09-18T06:16:12.992Z,78.94
2022-09-18T06:17:12.948Z,78.85
2022-09-18T06:18:12.909Z,78.94
2022-09-18T06:19:15.892Z,78.85
2022-09-18T06:20:15.898Z,78.74
2022-09-18T06:21:13.029Z,78.74
2022-09-18T06:22:12.859Z,78.74
2022-09-18T06:23:12.850Z,78.85
2022-09-18T06:24:12.830Z,78.85
2022-09-18T06:25:12.810Z,78.85
2022-09-18T06:26:15.145Z,78.94
2022-09-18T06:27:12.851Z,78.91
2022-09-18T06:28:12.771Z,78.60
2022-09-18T06:29:12.759Z,78.60
2022-09-18T06:30:12.751Z,78.60
2022-09-18T06:31:12.787Z,78.81
2022-09-18T06:32:12.722Z,79.01
2022-09-18T06:33:12.772Z,78.60
2022-09-18T06:34:12.693Z,78.60
2022-09-18T06:35:12.681Z,78.60
2022-09-18T06:36:12.674Z,78.56
2022-09-18T06:37:12.652Z,78.46
2022-09-18T06:38:12.635Z,78.46
2022-09-18T06:39:15.672Z,78.36
2022-09-18T06:40:15.727Z,78.67
2022-09-18T06:41:12.596Z,78.46
2022-09-18T06:42:12.585Z,78.46
2022-09-18T06:43:12.566Z,78.46
2022-09-18T06:44:12.556Z,78.42
2022-09-18T06:45:12.565Z,78.32
2022-09-18T06:46:12.627Z,78.28
2022-09-18T06:47:12.520Z,78.08
2022-09-18T06:48:12.506Z,78.15
2022-09-18T06:49:12.486Z,78.25
2022-09-18T06:50:12.480Z,78.05
2022-09-18T06:51:12.487Z,78.05
2022-09-18T06:52:12.447Z,78.15
2022-09-18T06:53:12.976Z,78.66
2022-09-18T06:54:12.417Z,78.35
2022-09-18T06:55:12.411Z,78.35
2022-09-18T06:56:12.391Z,78.25
2022-09-18T06:57:12.380Z,78.15
2022-09-18T06:58:12.368Z,78.21
2022-09-18T06:59:15.433Z,78.66
2022-09-18T07:00:15.357Z,78.52
2022-09-18T07:01:12.408Z,78.31
2022-09-18T07:02:16.043Z,78.21
2022-09-18T07:03:13.291Z,78.11
2022-09-18T07:04:12.281Z,78.31
2022-09-18T07:05:12.324Z,78.25
2022-09-18T07:06:12.258Z,78.25
2022-09-18T07:07:12.241Z,78.56
2022-09-18T07:08:12.233Z,78.35
2022-09-18T07:09:12.212Z,78.35
2022-09-18T07:10:12.203Z,78.28
2022-09-18T07:11:12.211Z,78.39
2022-09-18T07:12:12.174Z,78.19
2022-09-18T07:13:12.163Z,78.19
2022-09-18T07:14:12.151Z,78.08
2022-09-18T07:15:12.134Z,78.08
2022-09-18T07:16:12.302Z,77.87
2022-09-18T07:17:16.978Z,77.77
2022-09-18T07:18:13.094Z,77.77
2022-09-18T07:19:15.076Z,77.57
2022-09-18T07:20:15.076Z,77.33
2022-09-18T07:21:12.053Z,77.33
2022-09-18T07:22:12.107Z,77.33
2022-09-18T07:23:12.039Z,77.64
2022-09-18T07:24:12.017Z,77.73
2022-09-18T07:25:12.005Z,77.64
2022-09-18T07:26:11.986Z,77.50
2022-09-18T07:27:11.967Z,77.50
2022-09-18T07:28:12.007Z,77.80
2022-09-18T07:29:11.948Z,77.70
2022-09-18T07:30:11.928Z,77.70
2022-09-18T07:31:12.018Z,78.31
2022-09-18T07:32:11.906Z,78.31
2022-09-18T07:33:11.898Z,78.21
2022-09-18T07:34:11.929Z,78.28
2022-09-18T07:35:11.858Z,78.49
2022-09-18T07:36:11.860Z,78.69
2022-09-18T07:37:11.831Z,78.79
2022-09-18T07:38:11.822Z,78.69
2022-09-18T07:39:14.829Z,79.00
2022-09-18T07:40:14.876Z,78.86
2022-09-18T07:41:11.801Z,78.96
2022-09-18T07:42:11.772Z,78.72
2022-09-18T07:43:11.754Z,78.61
2022-09-18T07:44:11.745Z,78.88
2022-09-18T07:45:11.756Z,78.68
2022-09-18T07:46:11.742Z,79.19
2022-09-18T07:47:11.692Z,79.70
2022-09-18T07:48:11.684Z,79.09
2022-09-18T07:49:11.671Z,79.05
2022-09-18T07:50:11.693Z,80.42
2022-09-18T07:51:11.643Z,80.52
2022-09-18T07:52:11.634Z,81.48
2022-09-18T07:53:11.645Z,81.07
2022-09-18T07:54:11.604Z,80.56
2022-09-18T07:55:11.587Z,80.35
2022-09-18T07:56:11.579Z,79.70
2022-09-18T07:57:11.580Z,80.01
2022-09-18T07:58:11.606Z,81.13
2022-09-18T07:59:14.541Z,80.93
2022-09-18T08:00:14.537Z,80.83
2022-09-18T08:01:11.532Z,80.42
2022-09-18T08:02:11.667Z,81.03
2022-09-18T08:03:11.562Z,80.66
2022-09-18T08:04:11.526Z,80.05
2022-09-18T08:05:11.474Z,79.64
2022-09-18T08:06:11.450Z,79.94
2022-09-18T08:07:11.436Z,79.84
2022-09-18T08:08:11.428Z,79.53
2022-09-18T08:09:11.411Z,79.33
2022-09-18T08:10:11.431Z,79.13
2022-09-18T08:11:11.379Z,78.86
2022-09-18T08:12:11.370Z,78.72
2022-09-18T08:13:11.356Z,78.61
2022-09-18T08:14:11.358Z,78.41
2022-09-18T08:15:11.350Z,78.20
2022-09-18T08:16:11.346Z,78.41
2022-09-18T08:17:11.324Z,78.00
2022-09-18T08:18:11.295Z,77.59
2022-09-18T08:19:14.272Z,77.80
2022-09-18T08:20:14.304Z,77.80
2022-09-18T08:21:11.253Z,77.66
2022-09-18T08:22:11.277Z,77.45
2022-09-18T08:23:11.225Z,77.35
2022-09-18T08:24:11.215Z,77.35
2022-09-18T08:25:11.355Z,77.35
2022-09-18T08:26:11.198Z,77.22
2022-09-18T08:27:11.164Z,77.01
2022-09-18T08:28:11.154Z,77.11
2022-09-18T08:29:11.135Z,77.52
2022-09-18T08:30:11.139Z,77.59
2022-09-18T08:31:11.220Z,77.48
2022-09-18T08:32:11.096Z,77.28
2022-09-18T08:33:11.088Z,77.14
2022-09-18T08:34:11.068Z,77.51
2022-09-18T08:35:11.242Z,77.51
2022-09-18T08:36:11.038Z,78.02
2022-09-18T08:37:11.037Z,77.92
2022-09-18T08:38:11.010Z,77.92
2022-09-18T08:39:13.998Z,78.12
2022-09-18T08:40:14.082Z,78.84
2022-09-18T08:41:10.970Z,79.66
2022-09-18T08:42:11.010Z,79.55
2022-09-18T08:43:10.942Z,79.14
2022-09-18T08:44:10.929Z,79.00
2022-09-18T08:45:10.950Z,79.21
2022-09-18T08:46:10.958Z,80.33
2022-09-18T08:47:10.914Z,80.47
2022-09-18T08:48:10.870Z,79.96
2022-09-18T08:49:10.865Z,80.27
2022-09-18T08:50:10.845Z,79.66
2022-09-18T08:51:10.834Z,79.55
2022-09-18T08:52:10.926Z,79.25
2022-09-18T08:53:10.806Z,78.88
2022-09-18T08:54:10.812Z,78.88
2022-09-18T08:55:10.777Z,79.43
2022-09-18T08:56:10.763Z,78.64
2022-09-18T08:57:15.224Z,78.58
2022-09-18T08:58:10.746Z,77.90
2022-09-18T08:59:13.722Z,77.08
2022-09-18T09:00:13.704Z,77.12
2022-09-18T09:01:10.726Z,76.81
2022-09-18T09:02:10.767Z,78.24
2022-09-18T09:03:10.685Z,78.45
2022-09-18T09:04:10.645Z,78.69
2022-09-18T09:05:10.665Z,79.61
2022-09-18T09:06:10.616Z,79.41
2022-09-18T09:07:10.606Z,80.16
2022-09-18T09:08:10.664Z,80.98
2022-09-18T09:09:14.977Z,79.64
2022-09-18T09:10:11.568Z,79.61
2022-09-18T09:11:10.568Z,78.79
2022-09-18T09:12:10.587Z,78.04
2022-09-18T09:13:10.530Z,77.63
2022-09-18T09:14:10.596Z,77.39
2022-09-18T09:15:10.498Z,77.08
2022-09-18T09:16:10.536Z,77.04
2022-09-18T09:17:10.477Z,76.64
2022-09-18T09:18:10.465Z,76.64
2022-09-18T09:19:13.510Z,77.31
2022-09-18T09:20:13.443Z,77.22
2022-09-18T09:21:11.886Z,76.81
2022-09-18T09:22:10.411Z,77.62
2022-09-18T09:23:10.391Z,77.52
2022-09-18T09:24:10.372Z,78.00
2022-09-18T09:25:10.529Z,78.09
2022-09-18T09:26:10.342Z,77.79
2022-09-18T09:27:10.333Z,77.45
2022-09-18T09:28:13.342Z,77.55
2022-09-18T09:29:11.310Z,78.37
2022-09-18T09:30:10.293Z,78.64
2022-09-18T09:31:10.472Z,78.53
2022-09-18T09:32:10.316Z,79.14
2022-09-18T09:33:10.255Z,79.75
2022-09-18T09:34:10.234Z,79.75
2022-09-18T09:35:10.234Z,79.93
2022-09-18T09:36:10.206Z,79.52
2022-09-18T09:37:10.245Z,79.48
2022-09-18T09:38:10.203Z,79.17
2022-09-18T09:39:13.167Z,81.82
2022-09-18T09:40:13.215Z,80.77
2022-09-18T09:41:10.151Z,80.93
2022-09-18T09:42:10.128Z,82.90
2022-09-18T09:43:10.167Z,80.87
2022-09-18T09:44:10.100Z,81.48
2022-09-18T09:45:10.086Z,81.99
2022-09-18T09:46:10.106Z,82.13
2022-09-18T09:47:10.136Z,82.03
2022-09-18T09:48:10.039Z,81.86
2022-09-18T09:49:10.061Z,85.06
2022-09-18T09:50:10.025Z,81.59
2022-09-18T09:51:10.023Z,81.84
2022-09-18T09:52:09.990Z,83.40
2022-09-18T09:53:10.001Z,83.81
2022-09-18T09:54:09.991Z,83.54
2022-09-18T09:55:09.969Z,83.75
2022-09-18T09:56:09.939Z,83.89
2022-09-18T09:57:09.926Z,84.50
2022-09-18T09:58:09.905Z,84.95
2022-09-18T09:59:12.925Z,84.24
2022-09-18T10:00:12.883Z,85.57
2022-09-18T10:01:09.991Z,84.48
2022-09-18T10:02:09.881Z,84.17
2022-09-18T10:03:09.847Z,83.46
2022-09-18T10:04:09.844Z,83.56
2022-09-18T10:05:09.805Z,84.58
2022-09-18T10:06:09.810Z,82.89
2022-09-18T10:07:09.837Z,82.37
2022-09-18T10:08:09.765Z,81.35
2022-09-18T10:09:09.757Z,81.15
2022-09-18T10:10:09.735Z,80.83
2022-09-18T10:11:09.737Z,81.49
2022-09-18T10:12:09.715Z,80.98
2022-09-18T10:13:09.727Z,80.46
2022-09-18T10:14:09.746Z,80.57
2022-09-18T10:15:09.676Z,80.74
2022-09-18T10:16:09.712Z,80.29
2022-09-18T10:17:09.657Z,80.19
2022-09-18T10:18:13.339Z,80.08
2022-09-18T10:19:13.658Z,79.43
2022-09-18T10:20:12.641Z,79.39
2022-09-18T10:21:09.599Z,80.21
2022-09-18T10:22:09.597Z,78.75
2022-09-18T10:23:09.579Z,80.18
2022-09-18T10:24:09.742Z,79.02
2022-09-18T10:25:09.548Z,79.18
2022-09-18T10:26:09.530Z,78.98
2022-09-18T10:27:09.527Z,79.55
2022-09-18T10:28:09.501Z,80.07
2022-09-18T10:29:09.491Z,80.27
2022-09-18T10:30:09.547Z,80.98
2022-09-18T10:31:09.518Z,81.04
2022-09-18T10:32:09.453Z,81.25
2022-09-18T10:33:09.447Z,80.19
2022-09-18T10:34:09.422Z,80.05
2022-09-18T10:35:09.406Z,80.97
2022-09-18T10:36:09.435Z,82.66
2022-09-18T10:37:09.393Z,82.87
2022-09-18T10:38:09.364Z,84.43
2022-09-18T10:39:12.356Z,84.58
2022-09-18T10:40:12.395Z,86.10
2022-09-18T10:41:09.336Z,85.43
2022-09-18T10:42:09.466Z,84.31
2022-09-18T10:43:09.297Z,85.53
2022-09-18T10:44:09.301Z,84.00
2022-09-18T10:45:09.267Z,85.77
2022-09-18T10:46:09.321Z,86.29
2022-09-18T10:47:09.252Z,85.33
2022-09-18T10:48:09.277Z,85.53
2022-09-18T10:49:09.217Z,84.51
2022-09-18T10:50:09.215Z,85.84
2022-09-18T10:51:09.190Z,86.15
2022-09-18T10:52:09.170Z,85.74
2022-09-18T10:53:09.162Z,85.80
2022-09-18T10:54:09.178Z,84.78
2022-09-18T10:55:09.137Z,84.23
2022-09-18T10:56:09.121Z,84.74
2022-09-18T10:57:09.113Z,84.43
2022-09-18T10:58:09.090Z,85.51
2022-09-18T10:59:12.132Z,85.92
2022-09-18T11:00:12.127Z,85.06
2022-09-18T11:01:09.104Z,85.17
2022-09-18T11:02:09.068Z,85.06
2022-09-18T11:03:09.023Z,84.52
2022-09-18T11:04:09.014Z,84.52
2022-09-18T11:05:09.181Z,85.64
2022-09-18T11:06:08.983Z,84.45
2022-09-18T11:07:08.975Z,84.05
2022-09-18T11:08:08.974Z,85.58
2022-09-18T11:09:08.948Z,84.66
2022-09-18T11:10:08.937Z,84.15
2022-09-18T11:11:09.002Z,85.31
2022-09-18T11:12:08.908Z,85.00
2022-09-18T11:13:08.887Z,85.11
2022-09-18T11:14:08.875Z,85.37
2022-09-18T11:15:08.866Z,84.76
2022-09-18T11:16:08.907Z,84.72
2022-09-18T11:17:09.003Z,84.11
2022-09-18T11:18:08.819Z,84.45
2022-09-18T11:19:14.509Z,84.86
2022-09-18T11:20:11.808Z,84.97
2022-09-18T11:21:08.790Z,84.39
2022-09-18T11:22:08.772Z,84.90
2022-09-18T11:23:08.789Z,84.64
2022-09-18T11:24:08.738Z,85.45
2022-09-18T11:25:08.779Z,85.49
2022-09-18T11:26:08.720Z,84.41
2022-09-18T11:27:08.700Z,85.27
2022-09-18T11:28:08.681Z,86.02
2022-09-18T11:29:08.675Z,85.30
2022-09-18T11:30:08.660Z,85.51
2022-09-18T11:31:08.854Z,85.37
2022-09-18T11:32:08.632Z,85.13
2022-09-18T11:33:08.623Z,84.58
2022-09-18T11:34:08.603Z,84.33
2022-09-18T11:35:08.593Z,84.80
2022-09-18T11:36:08.581Z,85.27
2022-09-18T11:37:08.593Z,85.06
2022-09-18T11:38:08.553Z,84.56
2022-09-18T11:39:11.535Z,84.05
2022-09-18T11:40:11.565Z,84.42
2022-09-18T11:41:08.675Z,84.07
2022-09-18T11:42:08.497Z,85.29
2022-09-18T11:43:08.487Z,85.09
2022-09-18T11:44:08.466Z,84.58
2022-09-18T11:45:08.459Z,85.25
2022-09-18T11:46:08.448Z,84.16
2022-09-18T11:47:08.531Z,84.36
2022-09-18T11:48:08.417Z,84.12
2022-09-18T11:49:08.409Z,83.81
2022-09-18T11:50:08.452Z,84.32
2022-09-18T11:51:08.378Z,83.47
2022-09-18T11:52:08.359Z,85.09
2022-09-18T11:53:08.379Z,83.26
2022-09-18T11:54:08.340Z,84.18
2022-09-18T11:55:08.320Z,83.94
2022-09-18T11:56:08.309Z,83.53
2022-09-18T11:57:08.291Z,82.82
2022-09-18T11:58:08.301Z,81.71
2022-09-18T11:59:11.269Z,82.72
2022-09-18T12:00:11.265Z,76.06
2022-09-18T12:01:08.242Z,78.09
2022-09-18T12:02:08.365Z,80.93
2022-09-18T12:03:08.323Z,81.50
2022-09-18T12:04:08.195Z,78.53
2022-09-18T12:05:08.183Z,80.15
2022-09-18T12:06:08.167Z,79.50
2022-09-18T12:07:08.155Z,80.11
2022-09-18T12:08:06.957Z,79.24
2022-09-18T12:09:06.768Z,82.72
2022-09-18T12:10:06.757Z,82.86
2022-09-18T12:11:06.747Z,84.63
2022-09-18T12:12:06.730Z,83.38
2022-09-18T12:13:06.717Z,82.75
2022-09-18T12:14:06.717Z,83.70
2022-09-18T12:15:06.685Z,84.56
2022-09-18T12:16:06.702Z,83.07
2022-09-18T12:17:06.662Z,82.05
2022-09-18T12:18:06.634Z,81.71
2022-09-18T12:19:09.654Z,79.98
2022-09-18T12:20:09.627Z,81.91
2022-09-18T12:21:06.600Z,80.59
2022-09-18T12:22:06.581Z,79.53
2022-09-18T12:23:06.574Z,80.92
2022-09-18T12:24:06.585Z,80.31
2022-09-18T12:25:06.540Z,79.46
2022-09-18T12:26:06.520Z,74.68
2022-09-18T12:27:06.560Z,72.72
2022-09-18T12:28:06.489Z,70.79
2022-09-18T12:29:06.478Z,74.04
2022-09-18T12:30:06.469Z,73.50
2022-09-18T12:31:06.495Z,73.46
2022-09-18T12:32:06.437Z,75.29
2022-09-18T12:33:06.597Z,76.20
2022-09-18T12:34:06.407Z,76.06
2022-09-18T12:35:06.409Z,71.00
2022-09-18T12:36:06.381Z,70.89
2022-09-18T12:37:06.391Z,73.22
2022-09-18T12:38:06.355Z,73.12
2022-09-18T12:39:12.903Z,74.14
2022-09-18T12:40:10.042Z,75.93
2022-09-18T12:41:06.987Z,71.47
2022-09-18T12:42:06.967Z,76.94
2022-09-18T12:43:06.965Z,73.49
2022-09-18T12:44:06.997Z,77.34
2022-09-18T12:45:06.924Z,77.61
2022-09-18T12:46:06.932Z,71.33
2022-09-18T12:47:06.912Z,73.36
2022-09-18T12:48:06.874Z,74.98
2022-09-18T12:49:06.865Z,76.43
2022-09-18T12:50:06.912Z,72.08
2022-09-18T12:51:06.832Z,70.59
2022-09-18T12:52:06.820Z,68.76
2022-09-18T12:53:09.982Z,69.40
2022-09-18T12:54:06.905Z,78.88
2022-09-18T12:55:06.771Z,78.61
2022-09-18T12:56:06.790Z,74.58
2022-09-18T12:57:06.739Z,79.80
2022-09-18T12:58:06.759Z,82.45
2022-09-18T12:59:09.723Z,81.67
2022-09-18T13:00:09.718Z,81.30
2022-09-18T13:01:06.817Z,82.32
2022-09-18T13:02:06.675Z,82.97
2022-09-18T13:03:06.709Z,82.66
2022-09-18T13:04:06.647Z,83.68
2022-09-18T13:05:06.645Z,84.19
2022-09-18T13:06:06.614Z,83.72
2022-09-18T13:07:06.626Z,84.37
2022-09-18T13:08:06.584Z,84.78
2022-09-18T13:09:06.583Z,84.78
2022-09-18T13:10:06.563Z,85.08
2022-09-18T13:11:06.713Z,85.69
2022-09-18T13:12:06.530Z,84.41
2022-09-18T13:13:06.531Z,85.63
2022-09-18T13:14:06.512Z,84.04
2022-09-18T13:15:06.487Z,85.98
2022-09-18T13:16:06.526Z,84.59
2022-09-18T13:17:07.242Z,84.49
2022-09-18T13:18:07.172Z,86.16
2022-09-18T13:19:10.212Z,85.04
2022-09-18T13:20:10.162Z,84.69
2022-09-18T13:21:07.131Z,86.16
2022-09-18T13:22:07.119Z,85.14
2022-09-18T13:23:07.129Z,85.55
2022-09-18T13:24:07.089Z,85.24